createdAt,value
2019-02-14T00:01:38.469Z,5.30
2019-02-14T00:04:11.025Z,5.10
2019-02-14T00:06:43.509Z,5.33
2019-02-14T00:09:16.206Z,4.63
2019-02-14T00:11:49.113Z,4.03
2019-02-14T00:14:21.459Z,4.43
2019-02-14T00:16:53.952Z,5.23
2019-02-14T00:19:26.559Z,6.00
2019-02-14T00:21:58.864Z,5.17
2019-02-14T00:24:31.360Z,4.60
2019-02-14T00:27:03.578Z,4.57
2019-02-14T00:29:36.300Z,3.87
2019-02-14T00:32:08.898Z,4.07
2019-02-14T00:34:41.333Z,4.00
2019-02-14T00:37:13.917Z,3.80
2019-02-14T00:39:46.730Z,3.73
2019-02-14T00:42:19.106Z,4.50
2019-02-14T00:44:51.428Z,4.60
2019-02-14T00:47:24.292Z,4.40
2019-02-14T00:49:57.218Z,4.07
2019-02-14T00:52:29.750Z,4.63
2019-02-14T00:55:02.252Z,5.73
2019-02-14T00:57:34.488Z,5.43
2019-02-14T01:00:07.476Z,5.90
2019-02-14T01:02:39.864Z,5.03
2019-02-14T01:05:12.381Z,4.80
2019-02-14T01:07:44.709Z,4.17
2019-02-14T01:10:17.370Z,4.73
2019-02-14T01:12:50.074Z,3.83
2019-02-14T01:15:25.565Z,4.97
2019-02-14T01:17:58.037Z,4.67
2019-02-14T01:20:30.791Z,5.60
2019-02-14T01:23:03.228Z,4.07
2019-02-14T01:25:35.714Z,4.23
2019-02-14T01:28:08.087Z,4.50
2019-02-14T01:30:40.935Z,4.77
2019-02-14T01:33:13.299Z,4.20
2019-02-14T01:35:45.642Z,4.70
2019-02-14T01:38:18.154Z,3.83
2019-02-14T01:40:50.759Z,3.60
2019-02-14T01:43:23.741Z,3.67
2019-02-14T01:45:56.509Z,3.67
2019-02-14T01:48:29.598Z,3.77
2019-02-14T01:51:01.948Z,3.70
2019-02-14T01:53:34.755Z,3.80
2019-02-14T01:56:07.624Z,3.83
2019-02-14T01:58:40.077Z,3.60
2019-02-14T02:01:12.876Z,3.97
2019-02-14T02:03:45.655Z,4.10
2019-02-14T02:06:18.334Z,4.40
2019-02-14T02:08:51.294Z,3.43
2019-02-14T02:11:24.146Z,3.63
2019-02-14T02:13:56.719Z,3.80
2019-02-14T02:16:29.326Z,4.20
2019-02-14T02:19:01.872Z,4.10
2019-02-14T02:21:34.413Z,4.10
2019-02-14T02:24:07.161Z,4.03
2019-02-14T02:26:39.681Z,4.53
2019-02-14T02:29:11.993Z,3.60
2019-02-14T02:31:44.554Z,4.37
2019-02-14T02:34:16.830Z,4.00
2019-02-14T02:36:49.298Z,4.43
2019-02-14T02:39:21.794Z,4.13
2019-02-14T02:41:54.466Z,3.63
2019-02-14T02:44:26.932Z,4.07
2019-02-14T02:46:59.408Z,3.63
2019-02-14T02:49:31.881Z,3.90
2019-02-14T02:52:04.554Z,4.57
2019-02-14T02:54:37.097Z,4.13
2019-02-14T02:57:09.617Z,4.27
2019-02-14T02:59:42.304Z,5.63
2019-02-14T03:02:15.570Z,5.37
2019-02-14T03:04:47.874Z,4.80
2019-02-14T03:07:20.974Z,4.03
2019-02-14T03:09:53.530Z,4.03
2019-02-14T03:12:26.166Z,4.20
2019-02-14T03:14:58.570Z,3.77
2019-02-14T03:17:31.611Z,4.60
2019-02-14T03:20:04.549Z,4.27
2019-02-14T03:22:37.402Z,4.20
2019-02-14T03:25:13.862Z,4.50
2019-02-14T03:27:46.749Z,5.03
2019-02-14T03:30:19.273Z,5.00
2019-02-14T03:32:51.745Z,4.53
2019-02-14T03:35:24.183Z,4.17
2019-02-14T03:37:56.772Z,6.20
2019-02-14T03:40:29.519Z,4.80
2019-02-14T03:43:01.988Z,5.03
2019-02-14T03:45:34.888Z,5.23
2019-02-14T03:48:07.347Z,5.27
2019-02-14T03:50:39.809Z,4.43
2019-02-14T03:53:12.316Z,4.73
2019-02-14T03:55:44.674Z,4.00
2019-02-14T03:58:17.127Z,4.33
2019-02-14T04:00:49.566Z,4.13
2019-02-14T04:03:22.148Z,4.50
2019-02-14T04:05:54.830Z,4.37
2019-02-14T04:08:27.432Z,4.33
2019-02-14T04:10:59.875Z,3.60
2019-02-14T04:13:33.312Z,3.73
2019-02-14T04:16:06.107Z,4.53
2019-02-14T04:18:39.085Z,3.67
2019-02-14T04:21:11.515Z,5.00
2019-02-14T04:23:43.855Z,4.57
2019-02-14T04:26:16.603Z,4.80
2019-02-14T04:28:49.001Z,4.30
2019-02-14T04:31:21.312Z,4.20
2019-02-14T04:33:53.781Z,5.00
2019-02-14T04:36:26.106Z,4.60
2019-02-14T04:38:58.486Z,4.87
2019-02-14T04:41:31.060Z,5.20
2019-02-14T04:44:03.505Z,4.73
2019-02-14T04:46:36.086Z,5.20
2019-02-14T04:49:08.568Z,4.57
2019-02-14T04:51:41.098Z,4.77
2019-02-14T04:54:13.525Z,5.73
2019-02-14T04:56:45.938Z,5.03
2019-02-14T04:59:18.713Z,14.07
2019-02-14T05:01:51.277Z,8.00
2019-02-14T05:04:23.888Z,4.80
2019-02-14T05:06:56.531Z,4.87
2019-02-14T05:09:28.988Z,5.17
2019-02-14T05:12:01.581Z,4.47
2019-02-14T05:14:34.032Z,5.43
2019-02-14T05:17:06.635Z,4.77
2019-02-14T05:19:40.643Z,5.30
2019-02-14T05:22:12.950Z,4.33
2019-02-14T05:24:45.386Z,6.53
2019-02-14T05:27:17.891Z,4.80
2019-02-14T05:29:50.187Z,4.47
2019-02-14T05:32:22.786Z,4.67
2019-02-14T05:34:55.334Z,5.23
2019-02-14T05:37:46.950Z,4.97
2019-02-14T05:40:19.543Z,4.20
2019-02-14T05:42:52.491Z,4.53
2019-02-14T05:45:25.004Z,4.60
2019-02-14T05:47:57.584Z,4.87
2019-02-14T05:50:30.358Z,4.60
2019-02-14T05:53:03.758Z,5.60
2019-02-14T05:55:36.249Z,4.63
2019-02-14T05:58:08.913Z,5.27
2019-02-14T06:00:41.396Z,5.43
2019-02-14T06:03:14.553Z,5.27
2019-02-14T06:05:47.150Z,5.43
2019-02-14T06:08:19.528Z,5.33
2019-02-14T06:10:52.008Z,5.13
2019-02-14T06:13:24.524Z,5.20
2019-02-14T06:15:57.158Z,5.10
2019-02-14T06:18:29.766Z,4.73
2019-02-14T06:21:02.681Z,7.00
2019-02-14T06:23:35.988Z,8.63
2019-02-14T06:26:09.391Z,7.60
2019-02-14T06:28:41.681Z,6.90
2019-02-14T06:31:14.325Z,8.63
2019-02-14T06:33:47.206Z,8.07
2019-02-14T06:36:20.018Z,6.60
2019-02-14T06:38:52.692Z,6.70
2019-02-14T06:41:26.924Z,6.17
2019-02-14T06:43:59.775Z,6.17
2019-02-14T06:46:32.837Z,6.03
2019-02-14T06:49:05.362Z,6.70
2019-02-14T06:51:38.060Z,6.37
2019-02-14T06:54:10.518Z,6.13
2019-02-14T06:56:43.031Z,6.30
2019-02-14T06:59:16.043Z,9.73
2019-02-14T07:01:48.706Z,8.30
2019-02-14T07:04:21.470Z,8.60
2019-02-14T07:06:54.147Z,7.67
2019-02-14T07:09:28.383Z,8.93
2019-02-14T07:12:00.836Z,5.70
2019-02-14T07:14:33.579Z,6.97
2019-02-14T07:17:06.003Z,6.33
2019-02-14T07:19:38.650Z,6.13
2019-02-14T07:22:11.551Z,9.13
2019-02-14T07:24:44.599Z,6.27
2019-02-14T07:27:17.029Z,10.23
2019-02-14T07:29:49.436Z,7.23
2019-02-14T07:32:21.996Z,7.50
2019-02-14T07:34:54.631Z,5.83
2019-02-14T07:37:27.274Z,6.47
2019-02-14T07:39:59.810Z,5.60
2019-02-14T07:42:32.251Z,6.57
2019-02-14T07:45:07.890Z,6.60
2019-02-14T07:47:40.287Z,6.57
2019-02-14T07:50:13.127Z,5.83
2019-02-14T07:52:45.758Z,5.73
2019-02-14T07:55:20.026Z,5.23
2019-02-14T07:57:52.350Z,5.90
2019-02-14T08:00:25.419Z,5.73
2019-02-14T08:02:58.004Z,6.77
2019-02-14T08:05:30.301Z,7.13
2019-02-14T08:08:02.754Z,6.67
2019-02-14T08:10:37.100Z,6.37
2019-02-14T08:13:11.967Z,6.90
2019-02-14T08:15:44.867Z,6.60
2019-02-14T08:18:17.336Z,6.70
2019-02-14T08:20:50.195Z,6.60
2019-02-14T08:23:22.538Z,6.27
2019-02-14T08:25:55.596Z,6.97
2019-02-14T08:28:28.044Z,6.83
2019-02-14T08:31:00.446Z,6.17
2019-02-14T08:33:33.379Z,9.47
2019-02-14T08:36:05.972Z,14.53
2019-02-14T08:38:38.645Z,8.90
2019-02-14T08:41:11.295Z,5.77
2019-02-14T08:43:43.878Z,5.93
2019-02-14T08:46:16.449Z,7.37
2019-02-14T08:48:48.914Z,6.50
2019-02-14T08:51:22.005Z,6.73
2019-02-14T08:53:54.329Z,6.80
2019-02-14T08:56:27.054Z,6.37
2019-02-14T08:58:59.605Z,6.53
2019-02-14T09:01:32.227Z,7.13
2019-02-14T09:04:04.440Z,7.20
2019-02-14T09:06:37.064Z,6.43
2019-02-14T09:09:09.670Z,6.63
2019-02-14T09:11:42.014Z,5.93
2019-02-14T09:14:15.142Z,10.90
2019-02-14T09:16:47.501Z,8.07
2019-02-14T09:19:20.365Z,10.40
2019-02-14T09:21:52.901Z,10.43
2019-02-14T09:24:25.578Z,7.80
2019-02-14T09:26:58.083Z,7.30
2019-02-14T09:29:30.955Z,6.33
2019-02-14T09:32:03.663Z,6.03
2019-02-14T09:34:36.581Z,6.33
2019-02-14T09:37:09.156Z,6.00
2019-02-14T09:39:44.445Z,5.63
2019-02-14T09:42:17.152Z,6.30
2019-02-14T09:44:49.693Z,5.83
2019-02-14T09:47:22.311Z,7.07
2019-02-14T09:49:54.741Z,6.33
2019-02-14T09:52:27.100Z,5.50
2019-02-14T09:54:59.636Z,5.33
2019-02-14T09:57:32.518Z,5.90
2019-02-14T10:00:05.125Z,5.50
2019-02-14T10:02:37.540Z,6.17
2019-02-14T10:05:10.843Z,5.97
2019-02-14T10:07:43.394Z,5.70
2019-02-14T10:10:17.973Z,6.77
2019-02-14T10:12:50.394Z,5.67
2019-02-14T10:15:22.853Z,6.00
2019-02-14T10:17:55.455Z,6.60
2019-02-14T10:20:28.271Z,6.17
2019-02-14T10:23:00.967Z,6.03
2019-02-14T10:25:33.635Z,6.50
2019-02-14T10:28:06.260Z,5.87
2019-02-14T10:30:40.221Z,6.73
2019-02-14T10:33:12.936Z,10.83
2019-02-14T10:35:45.325Z,7.07
2019-02-14T10:38:22.254Z,10.17
2019-02-14T10:40:52.083Z,10.40
2019-02-14T10:43:24.589Z,7.20
2019-02-14T10:45:56.929Z,7.63
2019-02-14T10:48:29.494Z,7.67
2019-02-14T10:51:01.813Z,8.73
2019-02-14T10:53:34.658Z,6.53
2019-02-14T10:56:08.361Z,6.70
2019-02-14T10:58:40.854Z,7.67
2019-02-14T11:01:13.696Z,15.07
2019-02-14T11:03:46.411Z,20.47
2019-02-14T11:06:18.744Z,8.27
2019-02-14T11:08:51.300Z,11.27
2019-02-14T11:11:23.672Z,8.97
2019-02-14T11:13:56.275Z,6.90
2019-02-14T11:16:30.655Z,5.97
2019-02-14T11:19:03.104Z,5.63
2019-02-14T11:21:35.789Z,6.80
2019-02-14T11:24:08.672Z,6.10
2019-02-14T11:26:43.655Z,5.90
2019-02-14T11:29:16.331Z,6.93
2019-02-14T11:31:49.299Z,6.27
2019-02-14T11:34:21.988Z,5.60
2019-02-14T11:36:54.694Z,5.97
2019-02-14T11:39:27.179Z,6.07
2019-02-14T11:41:59.871Z,5.57
2019-02-14T11:44:39.592Z,7.40
2019-02-14T11:47:07.852Z,6.83
2019-02-14T11:49:40.575Z,6.33
2019-02-14T11:52:13.048Z,6.90
2019-02-14T11:54:45.533Z,6.10
2019-02-14T11:57:17.924Z,5.23
2019-02-14T11:59:50.389Z,5.90
2019-02-14T12:02:22.896Z,7.43
2019-02-14T12:04:55.448Z,5.60
2019-02-14T12:07:28.229Z,6.40
2019-02-14T12:10:00.803Z,6.00
2019-02-14T12:12:33.244Z,5.87
2019-02-14T12:15:06.149Z,5.60
2019-02-14T12:17:38.638Z,5.73
2019-02-14T12:20:12.532Z,6.57
2019-02-14T12:22:47.205Z,6.40
2019-02-14T12:25:19.768Z,6.33
2019-02-14T12:27:52.155Z,6.37
2019-02-14T12:30:24.726Z,6.07
2019-02-14T12:32:57.316Z,6.97
2019-02-14T12:35:29.926Z,6.20
2019-02-14T12:38:02.537Z,6.27
2019-02-14T12:40:35.159Z,6.47
2019-02-14T12:43:07.745Z,6.83
2019-02-14T12:45:40.311Z,6.27
2019-02-14T12:48:12.624Z,6.43
2019-02-14T12:51:04.087Z,6.90
2019-02-14T12:53:36.650Z,6.77
2019-02-14T12:56:10.032Z,7.10
2019-02-14T12:58:42.653Z,6.07
2019-02-14T13:01:15.307Z,6.33
2019-02-14T13:03:50.055Z,6.60
2019-02-14T13:06:22.809Z,6.87
2019-02-14T13:08:55.290Z,18.50
2019-02-14T13:11:27.741Z,16.27
2019-02-14T13:14:00.354Z,14.17
2019-02-14T13:16:32.773Z,9.70
2019-02-14T13:19:05.458Z,9.13
2019-02-14T13:21:37.971Z,6.63
2019-02-14T13:24:10.658Z,6.67
2019-02-14T13:26:43.530Z,6.43
2019-02-14T13:29:15.973Z,23.63
2019-02-14T13:31:48.579Z,6.93
2019-02-14T13:34:21.000Z,6.07
2019-02-14T13:37:01.322Z,5.33
2019-02-14T13:39:30.245Z,5.63
2019-02-14T13:42:02.079Z,6.10
2019-02-14T13:44:35.332Z,5.97
2019-02-14T13:47:07.953Z,5.13
2019-02-14T13:49:40.416Z,5.97
2019-02-14T13:52:13.179Z,13.63
2019-02-14T13:54:45.878Z,11.23
2019-02-14T13:57:18.261Z,6.53
2019-02-14T13:59:51.029Z,10.70
2019-02-14T14:02:23.615Z,5.87
2019-02-14T14:04:56.110Z,5.53
2019-02-14T14:07:28.953Z,5.57
2019-02-14T14:10:01.650Z,6.40
2019-02-14T14:12:34.472Z,5.40
2019-02-14T14:15:07.419Z,5.20
2019-02-14T14:17:40.086Z,5.67
2019-02-14T14:20:12.967Z,18.27
2019-02-14T14:22:45.547Z,16.83
2019-02-14T14:25:18.119Z,9.23
2019-02-14T14:27:50.612Z,5.50
2019-02-14T14:30:23.079Z,6.10
2019-02-14T14:32:55.683Z,5.40
2019-02-14T14:35:28.225Z,5.83
2019-02-14T14:38:01.153Z,7.33
2019-02-14T14:40:33.681Z,5.63
2019-02-14T14:43:22.895Z,5.77
2019-02-14T14:46:17.653Z,5.73
2019-02-14T14:48:50.339Z,5.87
2019-02-14T14:51:23.073Z,5.73
2019-02-14T14:53:55.694Z,5.87
2019-02-14T14:56:28.240Z,6.23
2019-02-14T14:59:00.576Z,6.60
2019-02-14T15:01:33.121Z,6.60
2019-02-14T15:04:05.836Z,6.60
2019-02-14T15:06:38.342Z,7.00
2019-02-14T15:09:10.684Z,5.73
2019-02-14T15:11:43.160Z,5.83
2019-02-14T15:14:15.670Z,5.90
2019-02-14T15:16:48.405Z,7.37
2019-02-14T15:19:21.113Z,7.47
2019-02-14T15:21:53.761Z,6.50
2019-02-14T15:24:26.363Z,5.83
2019-02-14T15:26:58.770Z,5.97
2019-02-14T15:29:31.595Z,6.23
2019-02-14T15:32:04.383Z,6.27
2019-02-14T15:34:37.156Z,6.90
2019-02-14T15:37:09.837Z,6.37
2019-02-14T15:39:42.261Z,6.77
2019-02-14T15:42:14.790Z,7.13
2019-02-14T15:44:47.822Z,6.17
2019-02-14T15:47:20.134Z,6.60
2019-02-14T15:49:52.608Z,7.10
2019-02-14T15:52:27.337Z,6.60
2019-02-14T15:54:59.972Z,7.00
2019-02-14T15:57:32.601Z,8.57
2019-02-14T16:00:07.864Z,7.37
2019-02-14T16:02:40.203Z,6.97
2019-02-14T16:05:12.603Z,7.10
2019-02-14T16:07:45.105Z,7.37
2019-02-14T16:10:18.820Z,9.47
2019-02-14T16:12:52.790Z,9.10
2019-02-14T16:15:30.846Z,8.83
2019-02-14T16:18:04.802Z,7.67
2019-02-14T16:20:40.407Z,7.20
2019-02-14T16:23:14.534Z,7.93
2019-02-14T16:25:47.214Z,10.73
2019-02-14T16:28:20.061Z,12.30
2019-02-14T16:30:54.654Z,17.07
2019-02-14T16:33:28.798Z,9.17
2019-02-14T16:36:01.691Z,7.77
2019-02-14T16:38:35.642Z,8.47
2019-02-14T16:41:08.583Z,8.27
2019-02-14T16:43:41.161Z,7.30
2019-02-14T16:46:13.737Z,7.17
2019-02-14T16:48:46.503Z,10.80
2019-02-14T16:51:19.181Z,10.37
2019-02-14T16:53:51.851Z,14.70
2019-02-14T16:56:24.509Z,9.80
2019-02-14T16:58:57.132Z,8.93
2019-02-14T17:01:29.702Z,10.37
2019-02-14T17:04:02.143Z,8.20
2019-02-14T17:06:34.829Z,7.37
2019-02-14T17:09:08.121Z,7.47
2019-02-14T17:11:40.513Z,9.23
2019-02-14T17:14:14.042Z,7.83
2019-02-14T17:16:46.705Z,7.57
2019-02-14T17:19:19.537Z,12.63
2019-02-14T17:21:52.620Z,22.43
2019-02-14T17:24:25.593Z,9.63
2019-02-14T17:26:58.507Z,7.63
2019-02-14T17:29:31.127Z,12.23
2019-02-14T17:32:03.799Z,9.67
2019-02-14T17:34:36.305Z,6.97
2019-02-14T17:37:08.892Z,6.60
2019-02-14T17:39:41.615Z,7.30
2019-02-14T17:42:14.085Z,6.67
2019-02-14T17:44:46.451Z,6.67
2019-02-14T17:47:18.789Z,6.53
2019-02-14T17:49:51.398Z,6.67
2019-02-14T17:52:24.005Z,14.70
2019-02-14T17:54:56.690Z,11.53
2019-02-14T17:57:29.205Z,8.20
2019-02-14T18:00:01.754Z,7.47
2019-02-14T18:02:34.088Z,8.13
2019-02-14T18:05:07.336Z,8.00
2019-02-14T18:07:40.458Z,7.53
2019-02-14T18:10:13.732Z,16.17
2019-02-14T18:12:46.475Z,13.47
2019-02-14T18:15:18.891Z,14.37
2019-02-14T18:17:51.571Z,25.80
2019-02-14T18:20:24.127Z,13.90
2019-02-14T18:22:56.488Z,10.83
2019-02-14T18:25:29.045Z,8.37
2019-02-14T18:28:01.541Z,8.60
2019-02-14T18:30:33.945Z,8.83
2019-02-14T18:33:06.361Z,9.07
2019-02-14T18:35:39.268Z,9.87
2019-02-14T18:38:11.751Z,18.03
2019-02-14T18:40:44.298Z,9.50
2019-02-14T18:43:16.764Z,14.27
2019-02-14T18:45:49.414Z,20.77
2019-02-14T18:48:22.176Z,9.63
2019-02-14T18:50:54.712Z,9.80
2019-02-14T18:53:27.304Z,13.07
2019-02-14T18:56:00.039Z,13.80
2019-02-14T18:58:32.603Z,12.57
2019-02-14T19:01:06.846Z,9.33
2019-02-14T19:03:39.861Z,10.20
2019-02-14T19:06:12.652Z,9.67
2019-02-14T19:08:45.522Z,9.93
2019-02-14T19:11:18.466Z,12.13
2019-02-14T19:13:51.226Z,9.40
2019-02-14T19:16:23.935Z,8.50
2019-02-14T19:18:58.693Z,10.67
2019-02-14T19:21:31.271Z,15.10
2019-02-14T19:24:04.076Z,29.63
2019-02-14T19:26:37.566Z,10.40
2019-02-14T19:29:10.206Z,9.83
2019-02-14T19:31:42.753Z,9.57
2019-02-14T19:34:15.164Z,9.67
2019-02-14T19:36:47.926Z,8.87
2019-02-14T19:39:20.345Z,11.63
2019-02-14T19:41:52.995Z,12.07
2019-02-14T19:44:25.608Z,11.57
2019-02-14T19:46:58.139Z,12.77
2019-02-14T19:49:30.580Z,9.57
2019-02-14T19:52:03.156Z,10.67
2019-02-14T19:54:36.310Z,11.07
2019-02-14T19:57:08.861Z,10.80
2019-02-14T19:59:41.414Z,10.40
2019-02-14T20:02:14.081Z,11.40
2019-02-14T20:04:46.680Z,9.63
2019-02-14T20:07:30.897Z,10.47
2019-02-14T20:10:03.602Z,9.83
2019-02-14T20:12:36.085Z,9.30
2019-02-14T20:15:11.567Z,11.23
2019-02-14T20:17:46.143Z,14.40
2019-02-14T20:20:18.688Z,11.20
2019-02-14T20:22:51.402Z,10.93
2019-02-14T20:25:25.941Z,21.77
2019-02-14T20:27:58.479Z,29.77
2019-02-14T20:30:31.005Z,11.50
2019-02-14T20:33:05.051Z,11.10
2019-02-14T20:35:37.936Z,12.57
2019-02-14T20:38:10.483Z,20.03
2019-02-14T20:40:43.008Z,14.37
2019-02-14T20:43:17.048Z,13.10
2019-02-14T20:45:52.084Z,12.67
2019-02-14T20:48:24.566Z,10.27
2019-02-14T20:50:57.453Z,11.60
2019-02-14T20:53:30.164Z,11.07
2019-02-14T20:56:02.870Z,10.97
2019-02-14T20:58:35.523Z,10.83
2019-02-14T21:01:09.537Z,10.77
2019-02-14T21:03:42.359Z,11.17
2019-02-14T21:06:14.961Z,11.73
2019-02-14T21:08:47.578Z,12.30
2019-02-14T21:11:20.173Z,11.33
2019-02-14T21:13:52.790Z,11.93
2019-02-14T21:16:25.365Z,11.67
2019-02-14T21:18:58.016Z,11.20
2019-02-14T21:21:30.562Z,11.50
2019-02-14T21:24:03.104Z,12.00
2019-02-14T21:26:36.158Z,11.47
2019-02-14T21:29:08.932Z,13.10
2019-02-14T21:31:41.610Z,13.37
2019-02-14T21:34:14.194Z,13.03
2019-02-14T21:36:46.829Z,12.17
2019-02-14T21:39:19.368Z,12.80
2019-02-14T21:41:51.990Z,12.60
2019-02-14T21:44:26.104Z,11.80
2019-02-14T21:46:58.898Z,12.73
2019-02-14T21:49:32.320Z,12.60
2019-02-14T21:52:05.019Z,13.27
2019-02-14T21:54:37.581Z,12.63
2019-02-14T21:57:10.137Z,12.90
2019-02-14T21:59:43.148Z,13.63
2019-02-14T22:02:15.597Z,12.60
2019-02-14T22:04:48.093Z,12.60
2019-02-14T22:07:21.450Z,11.90
2019-02-14T22:09:54.157Z,12.67
2019-02-14T22:12:40.161Z,13.53
2019-02-14T22:15:00.754Z,13.23
2019-02-14T22:17:33.923Z,12.23
2019-02-14T22:20:07.268Z,13.03
2019-02-14T22:22:39.932Z,13.57
2019-02-14T22:25:12.471Z,13.53
2019-02-14T22:27:45.397Z,13.90
2019-02-14T22:30:18.021Z,14.03
2019-02-14T22:32:50.575Z,13.90
2019-02-14T22:35:23.068Z,14.17
2019-02-14T22:37:55.564Z,17.23
2019-02-14T22:40:28.223Z,14.73
2019-02-14T22:43:00.837Z,17.00
2019-02-14T22:45:33.719Z,14.70
2019-02-14T22:48:06.143Z,15.30
2019-02-14T22:50:39.138Z,16.13
2019-02-14T22:53:11.554Z,15.20
2019-02-14T22:55:44.354Z,16.10
2019-02-14T22:58:17.392Z,15.40
2019-02-14T23:00:56.905Z,16.63
2019-02-14T23:03:29.668Z,15.63
2019-02-14T23:06:02.196Z,15.70
2019-02-14T23:08:34.804Z,15.40
2019-02-14T23:11:07.384Z,15.93
2019-02-14T23:13:39.887Z,16.50
2019-02-14T23:16:12.636Z,15.70
2019-02-14T23:18:45.328Z,16.63
2019-02-14T23:21:18.007Z,16.00
2019-02-14T23:23:50.352Z,17.33
2019-02-14T23:26:22.729Z,16.33
2019-02-14T23:28:55.459Z,27.67
2019-02-14T23:31:27.915Z,20.43
2019-02-14T23:34:00.289Z,17.13
2019-02-14T23:36:32.822Z,17.30
2019-02-14T23:39:06.471Z,17.23
2019-02-14T23:41:39.091Z,17.97
2019-02-14T23:44:11.703Z,16.80
2019-02-14T23:46:44.169Z,16.87
2019-02-14T23:49:16.571Z,17.13
2019-02-14T23:51:48.994Z,18.33
2019-02-14T23:54:21.363Z,17.40
2019-02-14T23:56:53.903Z,18.87
2019-02-14T23:59:26.616Z,18.77
